Rosa Maria Juarez — EA4469 — position and weather

sailwx.info

Track history (hours):
 
Tides and Currents Weather Stations Pressure Air Temp Water Temp Dewpoint Dewpoint Depression Visibility Wind Speed Wind Dir Waves Ship Positions

Rosa Maria Juarez

Last reported at 2018-Jun-22 05:10 UTC. Time now 2018-Jun-22 20:21 UTC.
Position N 37°33' W 000°58'.

Length 18 m.

Type: Fishing. MMSI: 224022730.

Date/timePositionNaut miles runAvg speedWind from/ knotsBaromVisibWave heightAir tempDewpointWater temp
2018-Jun-22 05:10N 37°33' W 000°58'1 9.0
2018-Jun-22 05:01N 37°32' W 000°57'3 4.9
2018-Jun-22 04:19N 37°29' W 000°54'0 0.2
2018-Jun-22 04:00N 37°29' W 000°54'1 1.3
2018-Jun-22 03:02N 37°30' W 000°54'0 0.1
2018-Jun-22 03:00N 37°30' W 000°54'0 0.0
2018-Jun-22 02:24N 37°30' W 000°54'0 0.7
2018-Jun-22 02:00N 37°30' W 000°55'0 0.3
2018-Jun-22 01:28N 37°30' W 000°55'1 1.4
2018-Jun-22 01:00N 37°31' W 000°54'0 0.5
2018-Jun-22 00:28N 37°30' W 000°54'0 0.7
2018-Jun-22 00:00N 37°31' W 000°54'2 3.9
2018-Jun-21 23:30N 37°32' W 000°53'0 0.1
2018-Jun-21 22:46N 37°32' W 000°53'0 0.6
2018-Jun-21 22:30N 37°32' W 000°53'5 0.3
2018-Jun-21 04:44N 37°34' W 000°59'2 8.7
2018-Jun-21 04:28N 37°32' W 000°57'2 3.6
2018-Jun-21 03:54N 37°31' W 000°55'1 0.5
2018-Jun-21 02:30N 37°32' W 000°54'0 0.5
2018-Jun-21 01:46N 37°31' W 000°55'0 0.4
2018-Jun-21 01:02N 37°32' W 000°54'0 5.0
2018-Jun-21 00:59N 37°32' W 000°54'1 0.9
2018-Jun-21 00:24N 37°31' W 000°54'4 4.2
2018-Jun-20 23:21N 37°31' W 000°59'3 0.2
2018-Jun-20 04:56N 37°34' W 000°59'4 8.6
2018-Jun-20 04:29N 37°30' W 000°56'0 0.7
2018-Jun-20 03:57N 37°30' W 000°56'0 0.2
2018-Jun-20 03:28N 37°30' W 000°56'1 1.6
2018-Jun-20 03:00N 37°30' W 000°55'0 0.7
2018-Jun-20 02:30N 37°30' W 000°56'0 0.3
2018-Jun-20 02:00N 37°30' W 000°56'3 5.5
2018-Jun-20 01:29N 37°31' W 000°59'1 1.7
2018-Jun-20 00:55N 37°30' W 000°59'1 3.1
2018-Jun-20 00:30N 37°31' W 000°60'3 1.0
2018-Jun-19 21:15N 37°31' W 000°56'2 8.8
2018-Jun-19 20:59N 37°32' W 000°53'4 8.9
2018-Jun-19 20:30N 37°33' W 000°48'5 8.9
2018-Jun-19 19:56N 37°36' W 000°42'4 8.6
2018-Jun-19 19:30N 37°39' W 000°41'5 9.0
2018-Jun-19 19:00N 37°44' W 000°39'5 9.2
2018-Jun-19 18:30N 37°48' W 000°39'5 9.1
2018-Jun-19 18:00N 37°53' W 000°40'4 9.1
2018-Jun-19 17:30N 37°57' W 000°41'1 0.2
2018-Jun-19 10:18N 37°58' W 000°41'0 0.2
2018-Jun-19 10:00N 37°58' W 000°41'0 0.0
2018-Jun-18 02:12N 37°58' W 000°41'1 2.7
2018-Jun-18 02:00N 37°58' W 000°41'2 3.3
2018-Jun-18 01:29N 37°56' W 000°41'1 2.9
2018-Jun-18 01:00N 37°55' W 000°41'1 2.7
2018-Jun-18 00:30N 37°54' W 000°40'1 2.8
2018-Jun-18 00:00N 37°52' W 000°39'1 2.7
2018-Jun-17 23:30N 37°51' W 000°39'1 2.9
2018-Jun-17 23:00N 37°50' W 000°38'2 3.1
2018-Jun-17 22:30N 37°48' W 000°38'0 0.7
2018-Jun-17 21:50N 37°48' W 000°39'3 8.8
2018-Jun-17 21:30N 37°51' W 000°39'5 9.3
2018-Jun-17 21:00N 37°55' W 000°41'  
2018-Jun-15 08:55N 37°58' W 000°41'2 4.2
2018-Jun-15 08:30N 37°59' W 000°39'5 9.4
2018-Jun-15 07:56N 38°04' W 000°35'24 0.9
2018-Jun-14 04:14N 38°13' W 000°07'0 0.1
2018-Jun-14 02:32N 38°13' W 000°07'21 6.2
2018-Jun-13 23:08N 37°59' W 000°27'1 8.7
2018-Jun-13 22:58N 37°59' W 000°29'4 8.9
2018-Jun-13 22:30N 37°58' W 000°34'5 9.2
2018-Jun-13 22:00N 37°58' W 000°39'1 2.6
2018-Jun-13 21:30N 37°58' W 000°41'0 0.0
2018-Jun-13 21:00N 37°58' W 000°41'0 0.0
2018-Jun-13 08:15N 37°58' W 000°41'0 0.1
2018-Jun-13 08:00N 37°58' W 000°41'0 0.0
2018-Jun-13 07:30N 37°58' W 000°41'0 0.0
2018-Jun-13 07:00N 37°58' W 000°41'0 0.0
2018-Jun-13 06:30N 37°58' W 000°41'0 0.0
2018-Jun-13 06:00N 37°58' W 000°41'0 0.0
2018-Jun-13 05:30N 37°58' W 000°41'1 2.0
2018-Jun-13 05:00N 37°58' W 000°40'5 9.0
2018-Jun-13 04:30N 37°59' W 000°34'5 9.5
2018-Jun-13 04:00N 37°60' W 000°28'3 6.1
2018-Jun-13 03:30N 38°00' W 000°24'0 0.3
2018-Jun-13 02:38N 38°01' W 000°24'2 4.5
2018-Jun-13 02:16N 37°59' W 000°24'0 1.2
2018-Jun-13 02:00N 37°59' W 000°24'1 2.5
2018-Jun-13 01:27N 37°59' W 000°25'1 1.5
2018-Jun-13 00:59N 37°59' W 000°26'4 7.3
2018-Jun-13 00:30N 37°56' W 000°29'4 8.9
2018-Jun-13 00:00N 37°55' W 000°34'5 9.4
2018-Jun-12 23:30N 37°57' W 000°40'2 3.1
2018-Jun-12 23:00N 37°58' W 000°41'0 0.0
2018-Jun-12 22:30N 37°58' W 000°41'0 0.0
2018-Jun-12 22:00N 37°58' W 000°41'0 0.0
2018-Jun-12 06:53N 37°58' W 000°41'0 0.3
2018-Jun-12 06:30N 37°58' W 000°41'0 0.0
2018-Jun-12 06:00N 37°58' W 000°41'0 0.0
2018-Jun-12 05:30N 37°58' W 000°41'  
Track history (hours):
 
Tides and Currents Weather Stations Pressure Air Temp Water Temp Dewpoint Dewpoint Depression Visibility Wind Speed Wind Dir Waves Ship Positions

Rosa Maria Juarez

Last reported at 2018-Jun-22 05:10 UTC. Time now 2018-Jun-22 20:21 UTC.
Position N 37°33' W 000°58'.

Length 18 m.

Type: Fishing. MMSI: 224022730.

Date/timePositionNaut miles runAvg speedWind from/ knotsBaromVisibWave heightAir tempDewpointWater temp
2018-Jun-22 05:10N 37°33' W 000°58'1 9.0
2018-Jun-22 05:01N 37°32' W 000°57'3 4.9
2018-Jun-22 04:19N 37°29' W 000°54'0 0.2
2018-Jun-22 04:00N 37°29' W 000°54'1 1.3
2018-Jun-22 03:02N 37°30' W 000°54'0 0.1
2018-Jun-22 03:00N 37°30' W 000°54'0 0.0
2018-Jun-22 02:24N 37°30' W 000°54'0 0.7
2018-Jun-22 02:00N 37°30' W 000°55'0 0.3
2018-Jun-22 01:28N 37°30' W 000°55'1 1.4
2018-Jun-22 01:00N 37°31' W 000°54'0 0.5
2018-Jun-22 00:28N 37°30' W 000°54'0 0.7
2018-Jun-22 00:00N 37°31' W 000°54'2 3.9
2018-Jun-21 23:30N 37°32' W 000°53'0 0.1
2018-Jun-21 22:46N 37°32' W 000°53'0 0.6
2018-Jun-21 22:30N 37°32' W 000°53'5 0.3
2018-Jun-21 04:44N 37°34' W 000°59'2 8.7
2018-Jun-21 04:28N 37°32' W 000°57'2 3.6
2018-Jun-21 03:54N 37°31' W 000°55'1 0.5
2018-Jun-21 02:30N 37°32' W 000°54'0 0.5
2018-Jun-21 01:46N 37°31' W 000°55'0 0.4
2018-Jun-21 01:02N 37°32' W 000°54'0 5.0
2018-Jun-21 00:59N 37°32' W 000°54'1 0.9
2018-Jun-21 00:24N 37°31' W 000°54'4 4.2
2018-Jun-20 23:21N 37°31' W 000°59'3 0.2
2018-Jun-20 04:56N 37°34' W 000°59'4 8.6
2018-Jun-20 04:29N 37°30' W 000°56'0 0.7
2018-Jun-20 03:57N 37°30' W 000°56'0 0.2
2018-Jun-20 03:28N 37°30' W 000°56'1 1.6
2018-Jun-20 03:00N 37°30' W 000°55'0 0.7
2018-Jun-20 02:30N 37°30' W 000°56'0 0.3
2018-Jun-20 02:00N 37°30' W 000°56'3 5.5
2018-Jun-20 01:29N 37°31' W 000°59'1 1.7
2018-Jun-20 00:55N 37°30' W 000°59'1 3.1
2018-Jun-20 00:30N 37°31' W 000°60'3 1.0
2018-Jun-19 21:15N 37°31' W 000°56'2 8.8
2018-Jun-19 20:59N 37°32' W 000°53'4 8.9
2018-Jun-19 20:30N 37°33' W 000°48'5 8.9
2018-Jun-19 19:56N 37°36' W 000°42'4 8.6
2018-Jun-19 19:30N 37°39' W 000°41'5 9.0
2018-Jun-19 19:00N 37°44' W 000°39'5 9.2
2018-Jun-19 18:30N 37°48' W 000°39'5 9.1
2018-Jun-19 18:00N 37°53' W 000°40'4 9.1
2018-Jun-19 17:30N 37°57' W 000°41'1 0.2
2018-Jun-19 10:18N 37°58' W 000°41'0 0.2
2018-Jun-19 10:00N 37°58' W 000°41'0 0.0
2018-Jun-18 02:12N 37°58' W 000°41'1 2.7
2018-Jun-18 02:00N 37°58' W 000°41'2 3.3
2018-Jun-18 01:29N 37°56' W 000°41'1 2.9
2018-Jun-18 01:00N 37°55' W 000°41'1 2.7
2018-Jun-18 00:30N 37°54' W 000°40'1 2.8
2018-Jun-18 00:00N 37°52' W 000°39'1 2.7
2018-Jun-17 23:30N 37°51' W 000°39'1 2.9
2018-Jun-17 23:00N 37°50' W 000°38'2 3.1
2018-Jun-17 22:30N 37°48' W 000°38'0 0.7
2018-Jun-17 21:50N 37°48' W 000°39'3 8.8
2018-Jun-17 21:30N 37°51' W 000°39'5 9.3
2018-Jun-17 21:00N 37°55' W 000°41'  
2018-Jun-15 08:55N 37°58' W 000°41'2 4.2
2018-Jun-15 08:30N 37°59' W 000°39'5 9.4
2018-Jun-15 07:56N 38°04' W 000°35'24 0.9
2018-Jun-14 04:14N 38°13' W 000°07'0 0.1
2018-Jun-14 02:32N 38°13' W 000°07'21 6.2
2018-Jun-13 23:08N 37°59' W 000°27'1 8.7
2018-Jun-13 22:58N 37°59' W 000°29'4 8.9
2018-Jun-13 22:30N 37°58' W 000°34'5 9.2
2018-Jun-13 22:00N 37°58' W 000°39'1 2.6
2018-Jun-13 21:30N 37°58' W 000°41'0 0.0
2018-Jun-13 21:00N 37°58' W 000°41'0 0.0
2018-Jun-13 08:15N 37°58' W 000°41'0 0.1
2018-Jun-13 08:00N 37°58' W 000°41'0 0.0
2018-Jun-13 07:30N 37°58' W 000°41'0 0.0
2018-Jun-13 07:00N 37°58' W 000°41'0 0.0
2018-Jun-13 06:30N 37°58' W 000°41'0 0.0
2018-Jun-13 06:00N 37°58' W 000°41'0 0.0
2018-Jun-13 05:30N 37°58' W 000°41'1 2.0
2018-Jun-13 05:00N 37°58' W 000°40'5 9.0
2018-Jun-13 04:30N 37°59' W 000°34'5 9.5
2018-Jun-13 04:00N 37°60' W 000°28'3 6.1
2018-Jun-13 03:30N 38°00' W 000°24'0 0.3
2018-Jun-13 02:38N 38°01' W 000°24'2 4.5
2018-Jun-13 02:16N 37°59' W 000°24'0 1.2
2018-Jun-13 02:00N 37°59' W 000°24'1 2.5
2018-Jun-13 01:27N 37°59' W 000°25'1 1.5
2018-Jun-13 00:59N 37°59' W 000°26'4 7.3
2018-Jun-13 00:30N 37°56' W 000°29'4 8.9
2018-Jun-13 00:00N 37°55' W 000°34'5 9.4
2018-Jun-12 23:30N 37°57' W 000°40'2 3.1
2018-Jun-12 23:00N 37°58' W 000°41'0 0.0
2018-Jun-12 22:30N 37°58' W 000°41'0 0.0
2018-Jun-12 22:00N 37°58' W 000°41'0 0.0
2018-Jun-12 06:53N 37°58' W 000°41'0 0.3
2018-Jun-12 06:30N 37°58' W 000°41'0 0.0
2018-Jun-12 06:00N 37°58' W 000°41'0 0.0
2018-Jun-12 05:30N 37°58' W 000°41'  

Dump ship's entire track history